首页
METAR-TAF:

METAR-TAF

机场 :

科克赛德, 比利时

纬度: 51-05N, 经度: 002-39E, 海拔: 4米

当前天气观测

该预报发布于24分钟前的10:25 UTC
风速4节,风向西北
温度 21°C
湿度 46%
气压 1024 hPa
能见度10公里或以上
少量云层高于4000英尺

METAR: EBFN 131025Z 31004KT 9999 FEW040 21/09 Q1024 BLU BLU

时间: 12:49 (10:49 UTC)

预报

该预报发布于2小时和8分钟前的08:41 UTC
预报有效从13日的 10点(UTC)到 13日的 19点(UTC)
风速3节,风向多变
能见度10公里或以上
少量云层高于22000英尺
成为
从 13日的 10点(UTC)到 13日的 12点(UTC)
风速6节,风向西转西北
少量云层高于7000英尺
散云层高于20000英尺

TAF: EBFN 130841Z 1310/1319 VRB03KT 9999 FEW220 BECMG 1310/1312 29006KT FEW070 SCT200

超过4000个机场的气象观测和天气预报(METAR&TAF报告)。

可查询的气象台以黄色和红色小点在地图上表示。

将鼠标移到小点上方,可查看气象台名称。

然后点击查看天气观测和预报。

如需切换地图:点击带黑十字的绿色按钮放大地图;点击带横线的绿色按钮缩小地图;或者点击绿色箭头查看邻近地区的地图。


METAR-TAF: